Time;durP1;ratioP1;P1;durP2;ratioP2;P2;SDS_P1;SDS_P2;PMS_P1;PMS_P2;Temp;Humidity;BMP_temperature;BMP_pressure;BME280_temperature;BME280_humidity;BME280_pressure;Samples;Min_cycle;Max_cycle;Signal;HPM_P1;HPM_P2
2022/07/20 00:01:08;;;;;;;3.38;2.78;;;;;;;-142.91;100.00;56616.03;5061489;28;20216;-60
2022/07/20 00:03:35;;;;;;;6.50;2.97;;;;;;;-142.91;100.00;56616.03;5060090;28;20710;-61
2022/07/20 00:06:02;;;;;;;6.10;3.15;;;;;;;-142.91;100.00;56616.03;5057052;28;20682;-61
2022/07/20 00:11:22;;;;;;;15.85;10.07;;;;;;;-142.91;100.00;56616.03;5056326;28;20329;-62
2022/07/20 00:13:51;;;;;;;11.93;7.85;;;;;;;-142.91;100.00;56616.03;5056138;28;20210;-61
2022/07/20 00:16:20;;;;;;;5.50;3.13;;;;;;;-142.91;100.00;56616.03;5054708;28;20323;-62
2022/07/20 00:18:47;;;;;;;10.95;3.92;;;;;;;-142.91;100.00;56616.03;5058073;28;20263;-61
2022/07/20 00:21:14;;;;;;;3.70;3.33;;;;;;;-142.91;100.00;56616.03;5055817;28;20218;-62
2022/07/20 00:23:41;;;;;;;5.35;4.47;;;;;;;-142.91;100.00;56616.03;5055336;28;20290;-62
2022/07/20 00:26:08;;;;;;;6.78;3.58;;;;;;;-142.91;100.00;56616.03;5058725;28;20205;-61
2022/07/20 00:28:35;;;;;;;6.15;2.80;;;;;;;-142.91;100.00;56616.03;5054562;28;20205;-63
2022/07/20 00:31:02;;;;;;;8.27;3.30;;;;;;;-142.91;100.00;56616.03;5055468;28;20749;-62
2022/07/20 00:33:30;;;;;;;4.28;3.25;;;;;;;-142.91;100.00;56616.03;5055125;28;20679;-62
2022/07/20 00:35:57;;;;;;;4.55;3.13;;;;;;;-142.91;100.00;56616.03;5057546;28;20200;-61
2022/07/20 00:38:24;;;;;;;4.60;2.90;;;;;;;-142.91;100.00;56616.03;5058378;28;20305;-61
2022/07/20 00:40:51;;;;;;;9.55;3.53;;;;;;;-142.91;100.00;56616.03;5054625;28;20324;-61
2022/07/20 00:43:17;;;;;;;4.50;3.92;;;;;;;-142.91;100.00;56616.03;5057154;28;20208;-62
2022/07/20 00:45:44;;;;;;;6.60;3.30;;;;;;;-142.91;100.00;56616.03;5059306;28;20466;-61
2022/07/20 00:48:11;;;;;;;6.65;3.50;;;;;;;-142.91;100.00;56616.03;5057547;28;20267;-62
2022/07/20 00:50:40;;;;;;;2.88;2.60;;;;;;;-142.91;100.00;56616.03;5053863;28;20236;-61
2022/07/20 00:53:07;;;;;;;3.30;3.00;;;;;;;-142.91;100.00;56616.03;5055701;28;21564;-63
2022/07/20 00:55:34;;;;;;;5.07;3.65;;;;;;;-142.91;100.00;56616.03;5069928;27;20646;-62
2022/07/20 00:58:01;;;;;;;2.72;2.58;;;;;;;-142.91;100.00;56616.03;5103015;27;21053;-61
2022/07/20 01:00:28;;;;;;;5.57;2.65;;;;;;;-142.91;100.00;56616.03;5103186;27;20206;-61
2022/07/20 01:02:55;;;;;;;7.45;3.22;;;;;;;-142.91;100.00;56616.03;5104247;27;20222;-61
2022/07/20 01:05:22;;;;;;;5.75;2.80;;;;;;;-142.91;100.00;56616.03;5104191;27;21089;-60
2022/07/20 01:07:50;;;;;;;7.47;3.35;;;;;;;-142.91;100.00;56616.03;5105510;27;20660;-62
2022/07/20 01:10:18;;;;;;;3.72;2.90;;;;;;;-142.91;100.00;56616.03;5103578;27;20236;-63
2022/07/20 01:12:47;;;;;;;3.65;2.58;;;;;;;-142.91;100.00;56616.03;5105809;27;20258;-63
2022/07/20 01:15:14;;;;;;;3.28;3.03;;;;;;;-142.91;100.00;56616.03;5107616;27;20219;-61
2022/07/20 01:17:41;;;;;;;7.47;3.08;;;;;;;-142.91;100.00;56616.03;5106200;27;20200;-62
2022/07/20 01:20:14;;;;;;;4.80;2.40;;;;;;;-142.91;100.00;56616.03;5104662;27;20204;-62
2022/07/20 01:22:43;;;;;;;2.67;2.42;;;;;;;-142.91;100.00;56616.03;5105862;27;20982;-61
2022/07/20 01:25:10;;;;;;;4.07;2.88;;;;;;;-142.91;100.00;56616.03;5101211;27;20227;-62
2022/07/20 01:27:36;;;;;;;5.97;2.70;;;;;;;-142.91;100.00;56616.03;5099885;22;20269;-61
2022/07/20 01:30:04;;;;;;;3.05;2.53;;;;;;;-142.91;100.00;56616.03;5065986;27;20340;-61
2022/07/20 01:32:31;;;;;;;5.15;2.47;;;;;;;-142.91;100.00;56616.03;5067165;28;20201;-61
2022/07/20 01:34:58;;;;;;;7.53;3.60;;;;;;;-142.91;100.00;56616.03;5066449;27;20832;-61
2022/07/20 01:37:25;;;;;;;6.32;2.45;;;;;;;-142.91;100.00;56616.03;5067798;28;20728;-62
2022/07/20 01:39:53;;;;;;;9.20;2.80;;;;;;;-142.91;100.00;56616.03;5066234;27;20706;-62
2022/07/20 01:42:20;;;;;;;25.98;14.90;;;;;;;-142.91;100.00;56616.03;5067092;28;20649;-60
2022/07/20 01:44:47;;;;;;;17.15;12.02;;;;;;;-142.91;100.00;56616.03;5067429;28;20243;-61
2022/07/20 01:47:14;;;;;;;6.85;4.35;;;;;;;-142.91;100.00;56616.03;5065894;27;20266;-61
2022/07/20 01:49:41;;;;;;;7.53;3.42;;;;;;;-142.91;100.00;56616.03;5066597;28;20718;-61
2022/07/20 01:52:08;;;;;;;6.82;3.53;;;;;;;-142.91;100.00;56616.03;5060337;28;20209;-61
2022/07/20 01:54:34;;;;;;;6.10;4.20;;;;;;;-142.91;100.00;56616.03;5063145;28;20260;-61
2022/07/20 01:57:03;;;;;;;8.20;4.43;;;;;;;-142.91;100.00;56616.03;5064630;27;20204;-61
2022/07/20 01:59:30;;;;;;;3.95;3.45;;;;;;;-142.91;100.00;56616.03;5064611;27;20600;-63
2022/07/20 02:01:57;;;;;;;8.13;4.05;;;;;;;-142.91;100.00;56616.03;5063042;27;20633;-62
2022/07/20 02:04:24;;;;;;;4.90;3.60;;;;;;;-142.91;100.00;56616.03;5064247;27;20201;-63
2022/07/20 02:06:50;;;;;;;7.07;3.85;;;;;;;-142.91;100.00;56616.03;5081794;27;20209;-63
2022/07/20 02:09:17;;;;;;;6.03;3.45;;;;;;;-142.91;100.00;56616.03;5082354;27;20208;-62
2022/07/20 02:11:44;;;;;;;8.05;3.83;;;;;;;-142.91;100.00;56616.03;5083292;27;20200;-61
2022/07/20 02:14:12;;;;;;;3.38;3.08;;;;;;;-142.91;100.00;56616.03;5084227;27;20211;-61
2022/07/20 02:16:39;;;;;;;3.92;3.40;;;;;;;-142.91;100.00;56616.03;5081851;27;20269;-61
2022/07/20 02:19:05;;;;;;;6.05;3.33;;;;;;;-142.91;100.00;56616.03;5083247;27;21140;-61
2022/07/20 02:21:32;;;;;;;6.65;3.72;;;;;;;-142.91;100.00;56616.03;5082658;27;20226;-62
2022/07/20 02:23:59;;;;;;;4.63;3.75;;;;;;;-142.91;100.00;56616.03;5083732;27;20192;-61
2022/07/20 02:26:26;;;;;;;4.82;3.92;;;;;;;-142.91;100.00;56616.03;5082507;27;20289;-62
2022/07/20 02:28:53;;;;;;;6.95;4.13;;;;;;;-142.91;100.00;56616.03;5081560;27;20213;-60
2022/07/20 02:31:23;;;;;;;5.18;3.10;;;;;;;-142.91;100.00;56616.03;5080808;27;20277;-61
2022/07/20 02:33:50;;;;;;;7.50;2.88;;;;;;;-142.91;100.00;56616.03;5083360;27;20205;-61
2022/07/20 02:36:17;;;;;;;7.25;2.72;;;;;;;-142.91;100.00;56616.03;5082794;27;20289;-61
2022/07/20 02:38:44;;;;;;;5.22;3.10;;;;;;;-142.91;100.00;56616.03;5083511;27;20208;-61
2022/07/20 02:41:11;;;;;;;7.35;3.45;;;;;;;-142.91;100.00;56616.03;5083362;27;20205;-61
2022/07/20 02:43:38;;;;;;;8.65;3.25;;;;;;;-142.91;100.00;56616.03;5084187;27;20203;-61
2022/07/20 02:46:06;;;;;;;20.75;3.03;;;;;;;-142.91;100.00;56616.03;5084747;27;20208;-61
2022/07/20 02:48:34;;;;;;;12.43;3.55;;;;;;;-142.91;100.00;56616.03;5083037;27;20215;-62
2022/07/20 02:51:01;;;;;;;4.60;3.20;;;;;;;-142.91;100.00;56616.03;5082744;27;20228;-61
2022/07/20 02:53:28;;;;;;;8.70;2.88;;;;;;;-142.91;100.00;56616.03;5084179;27;20214;-62
2022/07/20 02:55:54;;;;;;;8.60;2.90;;;;;;;-142.91;100.00;56616.03;5084624;27;20204;-62
2022/07/20 02:58:21;;;;;;;5.90;3.00;;;;;;;-142.91;100.00;56616.03;5084105;27;20282;-62
2022/07/20 03:00:48;;;;;;;11.65;2.97;;;;;;;-142.91;100.00;56616.03;5082489;27;20196;-62
2022/07/20 03:03:15;;;;;;;2.60;2.40;;;;;;;-142.91;100.00;56616.03;5083962;27;21186;-61
2022/07/20 03:05:43;;;;;;;4.95;2.58;;;;;;;-142.91;100.00;56616.03;5083658;27;20239;-61
2022/07/20 03:08:10;;;;;;;7.88;3.70;;;;;;;-142.91;100.00;56616.03;5084458;27;20208;-63
2022/07/20 03:10:37;;;;;;;11.30;3.20;;;;;;;-142.91;100.00;56616.03;5081485;27;20252;-61
2022/07/20 03:13:04;;;;;;;5.43;3.03;;;;;;;-142.91;100.00;56616.03;5083590;27;20196;-62
2022/07/20 03:15:31;;;;;;;8.52;3.20;;;;;;;-142.91;100.00;56616.03;5083745;27;20200;-61
2022/07/20 03:17:58;;;;;;;4.53;2.85;;;;;;;-142.91;100.00;56616.03;5083183;27;20200;-62
2022/07/20 03:20:27;;;;;;;6.88;3.08;;;;;;;-142.91;100.00;56616.03;5082465;27;20196;-61
2022/07/20 03:22:56;;;;;;;8.85;3.28;;;;;;;-142.91;100.00;56616.03;5082285;27;20205;-62
2022/07/20 03:25:23;;;;;;;8.77;3.13;;;;;;;-142.91;100.00;56616.03;5084057;27;20208;-62
2022/07/20 03:27:53;;;;;;;6.30;2.83;;;;;;;-142.91;100.00;56616.03;5084024;27;20248;-62
2022/07/20 03:30:19;;;;;;;11.07;3.58;;;;;;;-142.91;100.00;56616.03;5082848;27;20898;-61
2022/07/20 03:32:46;;;;;;;8.55;3.10;;;;;;;-142.91;100.00;56616.03;5084651;27;20208;-61
2022/07/20 03:35:13;;;;;;;13.15;3.47;;;;;;;-142.91;100.00;56616.03;5084952;27;20204;-61
2022/07/20 03:37:40;;;;;;;11.75;3.88;;;;;;;-142.91;100.00;56616.03;5084893;27;20699;-61
2022/07/20 03:40:09;;;;;;;8.73;3.17;;;;;;;-142.91;100.00;56616.03;5081003;27;20205;-61
2022/07/20 03:42:36;;;;;;;15.60;3.80;;;;;;;-142.91;100.00;56616.03;5082207;27;20238;-61
2022/07/20 03:45:04;;;;;;;8.05;4.00;;;;;;;-142.91;100.00;56616.03;5081626;27;21132;-62
2022/07/20 03:47:31;;;;;;;8.18;4.10;;;;;;;-142.91;100.00;56616.03;5081971;27;20210;-61
2022/07/20 03:49:58;;;;;;;7.80;3.72;;;;;;;-142.91;100.00;56616.03;5080781;28;20238;-61
2022/07/20 03:52:24;;;;;;;8.55;3.33;;;;;;;-142.91;100.00;56616.03;5081929;27;20204;-61
2022/07/20 03:54:51;;;;;;;4.38;2.92;;;;;;;-142.91;100.00;56616.03;5082789;28;20208;-63
2022/07/20 03:57:19;;;;;;;11.23;3.17;;;;;;;-142.91;100.00;56616.03;5084472;27;20832;-60
2022/07/20 03:59:46;;;;;;;8.45;4.25;;;;;;;-142.91;100.00;56616.03;5083538;27;20264;-61
2022/07/20 04:02:13;;;;;;;14.27;3.75;;;;;;;-142.91;100.00;56616.03;5083117;27;20200;-62
2022/07/20 04:04:40;;;;;;;17.70;3.20;;;;;;;-142.91;100.00;56616.03;5083535;27;20230;-63
2022/07/20 04:07:06;;;;;;;10.98;3.58;;;;;;;-142.91;100.00;56616.03;5084961;27;20211;-62
2022/07/20 04:09:46;;;;;;;7.45;3.28;;;;;;;-142.91;100.00;56616.03;5084583;27;20200;-62
2022/07/20 04:12:15;;;;;;;10.13;3.75;;;;;;;-142.91;100.00;56616.03;5081042;27;20217;-62
2022/07/20 04:14:44;;;;;;;6.15;2.83;;;;;;;-142.91;100.00;56616.03;5082198;27;20209;-62
2022/07/20 04:17:11;;;;;;;14.05;4.75;;;;;;;-142.91;100.00;56616.03;5086098;27;20204;-62
2022/07/20 04:19:38;;;;;;;9.10;3.50;;;;;;;-142.91;100.00;56616.03;5086954;27;20208;-60
2022/07/20 04:22:05;;;;;;;10.70;4.05;;;;;;;-142.91;100.00;56616.03;5085817;27;20196;-61
2022/07/20 04:24:32;;;;;;;4.15;2.95;;;;;;;-142.91;100.00;56616.03;5087445;27;20766;-62
2022/07/20 04:26:59;;;;;;;5.03;3.10;;;;;;;-142.91;100.00;56616.03;5086459;27;20242;-62
2022/07/20 04:29:26;;;;;;;4.15;3.20;;;;;;;-142.91;100.00;56616.03;5085886;27;20266;-61
2022/07/20 04:31:55;;;;;;;5.18;3.10;;;;;;;-142.91;100.00;56616.03;5085685;27;20252;-63
2022/07/20 04:34:22;;;;;;;4.40;2.72;;;;;;;-142.91;100.00;56616.03;5086312;27;20205;-61
2022/07/20 04:36:49;;;;;;;5.10;3.28;;;;;;;-142.91;100.00;56616.03;5087301;27;20220;-61
2022/07/20 04:39:15;;;;;;;5.50;3.65;;;;;;;-142.91;100.00;56616.03;5086468;27;20661;-61
2022/07/20 04:41:42;;;;;;;7.88;2.85;;;;;;;-142.91;100.00;56616.03;5083588;27;20822;-62
2022/07/20 04:44:09;;;;;;;6.32;2.72;;;;;;;-142.91;100.00;56616.03;5084156;27;20200;-61
2022/07/20 04:46:36;;;;;;;11.88;3.72;;;;;;;-142.91;100.00;56616.03;5085449;27;20662;-62
2022/07/20 04:49:04;;;;;;;3.97;2.72;;;;;;;-142.91;100.00;56616.03;5086114;27;20566;-62
2022/07/20 04:51:31;;;;;;;3.85;3.22;;;;;;;-142.91;100.00;56616.03;5086031;27;21587;-61
2022/07/20 04:53:58;;;;;;;8.23;2.75;;;;;;;-142.91;100.00;56616.03;5086974;27;20291;-61
2022/07/20 04:56:25;;;;;;;8.15;6.70;;;;;;;-142.91;100.00;56616.03;5084733;27;20224;-62
2022/07/20 04:58:54;;;;;;;3.72;3.40;;;;;;;-142.91;100.00;56616.03;5085960;27;20208;-61
2022/07/20 05:01:22;;;;;;;10.90;8.35;;;;;;;-142.91;100.00;56616.03;5083966;27;20204;-61
2022/07/20 05:03:49;;;;;;;8.32;4.20;;;;;;;-142.91;100.00;56616.03;5087021;27;20204;-61
2022/07/20 05:06:17;;;;;;;10.27;5.70;;;;;;;-142.91;100.00;56616.03;5086586;27;20309;-61
2022/07/20 05:08:44;;;;;;;14.27;8.75;;;;;;;-142.91;100.00;56616.03;5084362;27;21013;-63
2022/07/20 05:11:11;;;;;;;11.73;8.15;;;;;;;-142.91;100.00;56616.03;5084989;27;20259;-62
2022/07/20 05:13:38;;;;;;;7.75;5.20;;;;;;;-142.91;100.00;56616.03;5085413;27;20427;-62
2022/07/20 05:16:06;;;;;;;4.82;3.95;;;;;;;-142.91;100.00;56616.03;5086903;27;20204;-62
2022/07/20 05:18:33;;;;;;;7.13;3.70;;;;;;;-142.91;100.00;56616.03;5086611;27;20341;-62
2022/07/20 05:20:59;;;;;;;4.53;3.30;;;;;;;-142.91;100.00;56616.03;5085029;27;20206;-63
2022/07/20 05:23:28;;;;;;;4.47;3.38;;;;;;;-142.91;100.00;56616.03;5085474;27;20205;-63
2022/07/20 05:25:55;;;;;;;11.43;3.75;;;;;;;-142.91;100.00;56616.03;5086517;27;20208;-63
2022/07/20 05:28:22;;;;;;;5.95;3.13;;;;;;;-142.91;100.00;56616.03;5085903;27;20685;-62
2022/07/20 05:30:50;;;;;;;3.53;3.22;;;;;;;-142.91;100.00;56616.03;5083662;27;20283;-62
2022/07/20 05:33:17;;;;;;;5.47;3.72;;;;;;;-142.91;100.00;56616.03;5083065;27;20204;-61
2022/07/20 05:35:44;;;;;;;5.65;3.80;;;;;;;-142.91;100.00;56616.03;5085863;27;20216;-62
2022/07/20 05:38:11;;;;;;;9.32;4.50;;;;;;;-142.91;100.00;56616.03;5085189;27;20204;-63
2022/07/20 05:40:39;;;;;;;7.20;3.60;;;;;;;-142.91;100.00;56616.03;5086107;27;20264;-62
2022/07/20 05:43:06;;;;;;;15.88;10.05;;;;;;;-142.91;100.00;56616.03;5086267;27;20718;-62
2022/07/20 05:45:33;;;;;;;7.13;6.57;;;;;;;-142.91;100.00;56616.03;5083327;27;20653;-62
2022/07/20 05:48:00;;;;;;;7.55;5.38;;;;;;;-142.91;100.00;56616.03;5085677;27;22162;-62
2022/07/20 05:50:27;;;;;;;5.80;3.40;;;;;;;-142.91;100.00;56616.03;5085128;27;20253;-64
2022/07/20 05:52:54;;;;;;;7.43;3.95;;;;;;;-142.91;100.00;56616.03;5085521;27;20209;-62
2022/07/20 05:55:20;;;;;;;11.00;4.00;;;;;;;-142.91;100.00;56616.03;5083861;27;20209;-66
2022/07/20 05:57:49;;;;;;;5.68;3.67;;;;;;;-142.91;100.00;56616.03;5085282;27;20204;-62
2022/07/20 06:00:16;;;;;;;5.55;3.55;;;;;;;-142.91;100.00;56616.03;5083715;27;20211;-62
2022/07/20 06:02:43;;;;;;;5.13;3.33;;;;;;;-142.91;100.00;56616.03;5085586;27;20204;-62
2022/07/20 06:05:10;;;;;;;3.70;3.13;;;;;;;-142.91;100.00;56616.03;5085406;27;20220;-63
2022/07/20 06:07:37;;;;;;;4.40;3.95;;;;;;;-142.91;100.00;56616.03;5083483;27;20201;-63
2022/07/20 06:10:05;;;;;;;4.90;3.78;;;;;;;-142.91;100.00;56616.03;5083923;27;20210;-62
2022/07/20 06:12:31;;;;;;;8.93;4.10;;;;;;;-142.91;100.00;56616.03;5083481;27;20221;-63
2022/07/20 06:15:00;;;;;;;6.13;3.45;;;;;;;-142.91;100.00;56616.03;5083591;27;20958;-62
2022/07/20 06:17:33;;;;;;;9.85;4.65;;;;;;;-142.91;100.00;56616.03;5085754;27;20261;-63
2022/07/20 06:20:04;;;;;;;6.60;5.70;;;;;;;-142.91;100.00;56616.03;5084796;27;20212;-63
2022/07/20 06:22:31;;;;;;;8.05;4.68;;;;;;;-142.91;100.00;56616.03;5084827;27;20200;-63
2022/07/20 06:24:57;;;;;;;5.00;4.50;;;;;;;-142.91;100.00;56616.03;5081998;27;20568;-62
2022/07/20 06:27:24;;;;;;;6.13;4.22;;;;;;;-142.91;100.00;56616.03;5082544;27;20240;-62
2022/07/20 06:29:51;;;;;;;5.32;3.88;;;;;;;-142.91;100.00;56616.03;5083304;27;20926;-62
2022/07/20 06:32:19;;;;;;;3.95;3.15;;;;;;;-142.91;100.00;56616.03;5084203;27;20234;-61
2022/07/20 06:34:46;;;;;;;5.43;3.38;;;;;;;-142.91;100.00;56616.03;5083878;27;20207;-63
2022/07/20 06:37:13;;;;;;;7.75;3.60;;;;;;;-142.91;100.00;56616.03;5083372;27;20209;-62
2022/07/20 06:39:40;;;;;;;5.63;3.17;;;;;;;-142.91;100.00;56616.03;5083327;27;20629;-62
2022/07/20 06:42:07;;;;;;;4.03;3.63;;;;;;;-142.91;100.00;56616.03;5082320;27;20200;-63
2022/07/20 06:44:33;;;;;;;5.45;3.63;;;;;;;-142.91;100.00;56616.03;5083876;27;20200;-61
2022/07/20 06:47:00;;;;;;;5.57;3.95;;;;;;;-142.91;100.00;56616.03;5083549;27;20200;-62
2022/07/20 06:49:28;;;;;;;6.20;4.00;;;;;;;-142.91;100.00;56616.03;5083189;27;20200;-61
2022/07/20 06:51:56;;;;;;;6.93;3.70;;;;;;;-142.91;100.00;56616.03;5082609;27;20978;-62
2022/07/20 06:54:22;;;;;;;4.45;4.10;;;;;;;-142.91;100.00;56616.03;5083296;27;20269;-61
2022/07/20 06:56:49;;;;;;;12.48;8.75;;;;;;;-142.91;100.00;56616.03;5081063;27;21164;-61
2022/07/20 06:59:16;;;;;;;7.03;4.00;;;;;;;-142.91;100.00;56616.03;5084864;27;20272;-62
2022/07/20 07:01:43;;;;;;;8.68;3.85;;;;;;;-142.91;100.00;56616.03;5082048;27;20204;-65
2022/07/20 07:04:10;;;;;;;7.68;4.35;;;;;;;-142.91;100.00;56616.03;5082686;27;20291;-62
2022/07/20 07:06:38;;;;;;;5.55;3.40;;;;;;;-142.91;100.00;56616.03;5082709;27;20212;-61
2022/07/20 07:09:05;;;;;;;7.95;3.63;;;;;;;-142.91;100.00;56616.03;5082298;27;20320;-61
2022/07/20 07:11:32;;;;;;;3.75;3.45;;;;;;;-142.91;100.00;56616.03;5082175;27;20228;-61
2022/07/20 07:13:59;;;;;;;8.55;4.60;;;;;;;-142.91;100.00;56616.03;5083445;27;20284;-62
2022/07/20 07:16:26;;;;;;;5.80;3.50;;;;;;;-142.91;100.00;56616.03;5081692;27;20228;-62
2022/07/20 07:18:53;;;;;;;8.85;4.13;;;;;;;-142.91;100.00;56616.03;5083428;27;20857;-61
2022/07/20 07:21:19;;;;;;;10.10;3.72;;;;;;;-142.91;100.00;56616.03;5082286;27;20207;-62
2022/07/20 07:23:49;;;;;;;4.05;3.30;;;;;;;-142.91;100.00;56616.03;5082540;27;20208;-61
2022/07/20 07:26:16;;;;;;;30.63;22.35;;;;;;;-142.91;100.00;56616.03;5082324;27;20242;-62
2022/07/20 07:28:43;;;;;;;13.82;6.53;;;;;;;-142.91;100.00;56616.03;5085382;27;20220;-60
2022/07/20 07:31:10;;;;;;;5.30;3.78;;;;;;;-142.91;100.00;56616.03;5080230;27;20213;-61
2022/07/20 07:33:37;;;;;;;6.80;4.18;;;;;;;-142.91;100.00;56616.03;5083028;27;20468;-61
2022/07/20 07:36:05;;;;;;;6.63;3.60;;;;;;;-142.91;100.00;56616.03;5081639;27;20204;-61
2022/07/20 07:38:32;;;;;;;4.68;2.80;;;;;;;-142.91;100.00;56616.03;5082876;27;20209;-61
2022/07/20 07:41:01;;;;;;;5.25;3.05;;;;;;;-142.91;100.00;56616.03;5082615;27;20200;-60
2022/07/20 07:43:28;;;;;;;6.68;3.72;;;;;;;-142.91;100.00;56616.03;5079284;27;20196;-62
2022/07/20 07:45:55;;;;;;;3.88;3.03;;;;;;;-142.91;100.00;56616.03;5081607;28;20754;-62
2022/07/20 07:48:22;;;;;;;8.50;3.67;;;;;;;-142.91;100.00;56616.03;5083100;27;20203;-61
2022/07/20 07:50:49;;;;;;;3.65;3.17;;;;;;;-142.91;100.00;56616.03;5086703;27;20233;-62
2022/07/20 07:53:16;;;;;;;12.57;6.53;;;;;;;-142.91;100.00;56616.03;5086738;27;20215;-62
2022/07/20 07:55:43;;;;;;;10.43;4.18;;;;;;;-142.91;100.00;56616.03;5087554;27;20207;-61
2022/07/20 07:58:12;;;;;;;5.05;4.50;;;;;;;-142.91;100.00;56616.03;5083875;27;20211;-61
2022/07/20 08:00:40;;;;;;;17.23;5.25;;;;;;;-142.91;100.00;56616.03;5086466;27;20631;-61
2022/07/20 08:03:08;;;;;;;4.93;3.35;;;;;;;-142.91;100.00;56616.03;5085969;27;20211;-60
2022/07/20 08:05:36;;;;;;;7.80;3.65;;;;;;;-142.91;100.00;56616.03;5085456;27;21060;-60
2022/07/20 08:08:07;;;;;;;10.90;3.63;;;;;;;-142.91;100.00;56616.03;5086865;27;20204;-61
2022/07/20 08:10:35;;;;;;;6.60;3.00;;;;;;;-142.91;100.00;56616.03;5086346;27;21060;-61
2022/07/20 08:13:02;;;;;;;11.38;5.07;;;;;;;-142.91;100.00;56616.03;5085713;27;20219;-62
2022/07/20 08:15:30;;;;;;;16.88;5.70;;;;;;;-142.91;100.00;56616.03;5085758;27;20718;-60
2022/07/20 08:17:57;;;;;;;6.40;4.82;;;;;;;-142.91;100.00;56616.03;5086723;27;20238;-60
2022/07/20 08:20:23;;;;;;;7.43;3.67;;;;;;;-142.91;100.00;56616.03;5085617;27;20918;-61
2022/07/20 08:22:51;;;;;;;6.55;5.13;;;;;;;-142.91;100.00;56616.03;5085843;27;21860;-61
2022/07/20 08:25:18;;;;;;;9.82;3.40;;;;;;;-142.91;100.00;56616.03;5087804;27;20345;-61
2022/07/20 08:27:45;;;;;;;5.88;3.03;;;;;;;-142.91;100.00;56616.03;5085076;27;20277;-61
2022/07/20 08:30:12;;;;;;;18.30;12.27;;;;;;;-142.91;100.00;56616.03;5087111;27;20200;-63
2022/07/20 08:32:41;;;;;;;11.00;6.75;;;;;;;-142.91;100.00;56616.03;5086043;27;20224;-62
2022/07/20 08:35:08;;;;;;;7.80;5.15;;;;;;;-142.91;100.00;56616.03;5084782;27;20870;-61
2022/07/20 08:37:35;;;;;;;7.35;4.70;;;;;;;-142.91;100.00;56616.03;5084058;27;20308;-61
2022/07/20 08:40:02;;;;;;;6.63;4.82;;;;;;;-142.91;100.00;56616.03;5086822;27;20205;-62
2022/07/20 08:42:29;;;;;;;6.60;4.30;;;;;;;-142.91;100.00;56616.03;5085143;27;20454;-61
2022/07/20 08:44:56;;;;;;;6.70;3.80;;;;;;;-142.91;100.00;56616.03;5087066;27;20205;-61
2022/07/20 08:47:29;;;;;;;3.75;2.67;;;;;;;-142.91;100.00;56616.03;5085444;27;20697;-62
2022/07/20 08:49:57;;;;;;;8.00;4.65;;;;;;;-142.91;100.00;56616.03;5086092;27;20200;-60
2022/07/20 08:52:24;;;;;;;3.22;2.95;;;;;;;-142.91;100.00;56616.03;5086026;27;20224;-62
2022/07/20 08:54:51;;;;;;;2.60;2.40;;;;;;;-142.91;100.00;56616.03;5086533;27;21060;-62
2022/07/20 08:57:18;;;;;;;6.00;2.17;;;;;;;-142.91;100.00;56616.03;5084635;27;20203;-62
2022/07/20 08:59:46;;;;;;;4.32;2.67;;;;;;;-142.91;100.00;56616.03;5085074;27;20210;-63
2022/07/20 09:02:13;;;;;;;2.75;2.00;;;;;;;-142.91;100.00;56616.03;5086136;27;21462;-62
2022/07/20 09:04:55;;;;;;;3.63;2.50;;;;;;;-142.91;100.00;56616.03;5083684;27;20607;-61
2022/07/20 09:10:20;;;;;;;4.75;2.65;;;;;;;28.81;30.73;95608.16;5038571;27;20594;-66
2022/07/20 09:12:52;;;;;;;3.80;2.50;;;;;;;29.24;30.89;95593.47;5041391;28;20205;-63
2022/07/20 09:15:28;;;;;;;5.90;2.50;;;;;;;29.16;28.67;95606.50;5038995;28;20606;-63
2022/07/20 09:18:07;;;;;;;3.15;1.80;;;;;;;28.84;29.62;95600.03;5038026;28;21935;-64
2022/07/20 09:20:36;;;;;;;6.38;3.90;;;;;;;29.09;30.32;95603.66;5039544;28;20201;-65
2022/07/20 09:23:05;;;;;;;7.18;2.45;;;;;;;29.14;29.51;95597.97;5039224;28;20294;-63
2022/07/20 09:25:33;;;;;;;3.90;3.38;;;;;;;29.22;29.63;95592.78;5040773;28;20206;-64
2022/07/20 09:28:01;;;;;;;5.22;2.78;;;;;;;29.21;30.12;95606.84;5041157;28;20859;-66
2022/07/20 09:30:28;;;;;;;7.90;4.45;;;;;;;29.39;29.40;95597.19;5038632;28;20197;-64
2022/07/20 09:32:59;;;;;;;3.60;2.47;;;;;;;29.65;29.43;95599.84;5037193;28;20206;-64
2022/07/20 09:35:29;;;;;;;4.20;2.95;;;;;;;29.41;28.84;95598.72;5037499;28;20210;-65
2022/07/20 09:37:58;;;;;;;2.55;2.35;;;;;;;29.20;29.34;95589.53;5036089;28;20471;-62
2022/07/20 09:40:25;;;;;;;3.30;2.35;;;;;;;29.36;29.78;95584.41;5035713;28;20632;-63
2022/07/20 09:42:53;;;;;;;8.38;2.80;;;;;;;29.37;29.19;95583.41;5038016;28;20285;-63
2022/07/20 09:45:22;;;;;;;9.13;7.38;;;;;;;29.46;29.57;95582.50;5037798;28;20311;-64
2022/07/20 09:48:07;;;;;;;5.75;2.90;;;;;;;29.32;29.20;95577.81;5035807;28;20206;-64
2022/07/20 09:50:36;;;;;;;4.70;2.00;;;;;;;29.25;29.55;95579.41;5038313;28;20903;-64
2022/07/20 09:53:04;;;;;;;3.35;1.90;;;;;;;29.20;29.07;95579.06;5039361;28;20206;-63
2022/07/20 09:55:33;;;;;;;5.30;2.97;;;;;;;29.42;29.20;95568.94;5040946;28;20218;-63
2022/07/20 09:58:02;;;;;;;11.93;4.47;;;;;;;29.62;29.60;95566.09;5041749;28;20218;-64
2022/07/20 10:00:30;;;;;;;7.07;3.30;;;;;;;30.04;29.08;95574.00;5039369;28;20207;-64
2022/07/20 10:02:59;;;;;;;7.95;2.65;;;;;;;30.23;28.94;95570.28;5041661;28;20585;-64
2022/07/20 10:05:30;;;;;;;2.30;2.05;;;;;;;30.29;28.78;95561.78;5031840;28;20214;-64
2022/07/20 10:07:57;;;;;;;3.45;2.42;;;;;;;30.13;28.28;95562.56;5021419;28;20289;-64
2022/07/20 10:10:24;;;;;;;3.00;2.55;;;;;;;30.43;29.07;95564.63;5020044;28;21539;-66
2022/07/20 10:12:50;;;;;;;2.35;2.05;;;;;;;30.34;28.56;95544.59;5021637;28;20222;-64
2022/07/20 10:15:22;;;;;;;1.75;1.65;;;;;;;30.15;28.06;95544.88;5022206;28;20268;-64
2022/07/20 10:17:49;;;;;;;4.53;2.45;;;;;;;29.99;28.07;95544.81;5022374;28;20210;-64
2022/07/20 10:20:33;;;;;;;3.45;2.22;;;;;;;29.48;28.18;95541.28;5015503;28;20206;-64
2022/07/20 10:23:32;;;;;;;2.30;2.10;;;;;;;29.07;28.94;95546.25;5008818;28;20211;-64
2022/07/20 10:26:00;;;;;;;3.80;1.83;;;;;;;29.08;28.36;95540.03;5008402;28;20207;-64
2022/07/20 10:28:29;;;;;;;3.63;2.78;;;;;;;28.89;29.01;95540.22;5008780;28;20211;-63
2022/07/20 10:30:58;;;;;;;2.75;1.92;;;;;;;28.83;29.84;95540.81;5006717;28;20307;-63
2022/07/20 10:33:26;;;;;;;2.88;1.90;;;;;;;28.92;29.41;95537.31;5008738;28;20217;-63
2022/07/20 10:36:41;;;;;;;3.50;1.83;;;;;;;28.69;29.83;95528.25;5009028;28;20736;-63
2022/07/20 10:38:42;;;;;;;2.42;2.22;;;;;;;28.94;30.25;95522.28;5007338;28;20743;-64
2022/07/20 10:44:29;;;;;;;10.40;2.35;;;;;;;29.32;29.65;95517.59;5007630;28;20210;-64
2022/07/20 10:46:57;;;;;;;2.33;2.10;;;;;;;29.22;29.71;95511.63;5007799;28;20232;-66
2022/07/20 10:50:00;;;;;;;2.28;2.08;;;;;;;29.70;28.26;95508.47;5006037;28;20251;-63
2022/07/20 10:52:28;;;;;;;4.05;2.97;;;;;;;29.35;29.19;95514.69;5007186;28;20213;-64
2022/07/20 10:54:55;;;;;;;3.33;2.70;;;;;;;29.35;29.08;95509.44;5008046;28;21223;-63
2022/07/20 10:57:22;;;;;;;2.70;1.75;;;;;;;29.78;29.21;95511.97;5009023;28;20207;-64
2022/07/20 11:00:01;;;;;;;5.35;1.92;;;;;;;30.07;28.88;95492.44;5007107;28;20809;-64
2022/07/20 11:02:33;;;;;;;3.92;2.58;;;;;;;30.25;28.27;95493.09;5008617;28;20218;-63
2022/07/20 11:04:59;;;;;;;5.43;3.88;;;;;;;30.50;27.89;95493.13;5008993;28;20227;-64
2022/07/20 11:07:31;;;;;;;3.90;2.08;;;;;;;30.61;27.87;95485.81;5008730;28;20215;-64
2022/07/20 11:09:58;;;;;;;22.25;18.10;;;;;;;29.92;27.89;95500.06;5005617;28;20238;-63
2022/07/20 11:12:27;;;;;;;135.20;103.22;;;;;;;29.67;29.09;95499.16;5007840;28;22510;-61
2022/07/20 11:14:55;;;;;;;97.85;76.60;;;;;;;29.73;29.11;95490.66;5007413;28;20644;-62
2022/07/20 11:17:22;;;;;;;2.75;2.55;;;;;;;29.72;28.94;95494.25;5009566;28;20214;-63
2022/07/20 11:19:50;;;;;;;3.75;3.45;;;;;;;29.70;28.74;95485.72;5005843;28;20217;-63
2022/07/20 11:22:18;;;;;;;2.83;2.53;;;;;;;29.38;29.24;95483.78;5008560;28;20211;-63
2022/07/20 11:24:55;;;;;;;3.15;2.00;;;;;;;29.37;28.76;95489.16;5008452;28;20206;-62